sensor_id;sensor_type;location;lat;lon;timestamp;pressure;altitude;pressure_sealevel;temperature;humidity
39267;BME280;24967;51.154;13.812;2023-04-28T00:01:49;99788.91;;;6.57;63.55
39267;BME280;24967;51.154;13.812;2023-04-28T00:04:15;99791.78;;;6.54;63.32
39267;BME280;24967;51.154;13.812;2023-04-28T00:06:42;99789.13;;;6.54;63.51
39267;BME280;24967;51.154;13.812;2023-04-28T00:09:08;99792.00;;;6.51;63.26
39267;BME280;24967;51.154;13.812;2023-04-28T00:11:37;99782.16;;;6.53;63.30
39267;BME280;24967;51.154;13.812;2023-04-28T00:14:04;99785.16;;;6.48;63.52
39267;BME280;24967;51.154;13.812;2023-04-28T00:16:30;99782.75;;;6.45;63.13
39267;BME280;24967;51.154;13.812;2023-04-28T00:18:56;99774.09;;;6.43;63.21
39267;BME280;24967;51.154;13.812;2023-04-28T00:21:23;99780.94;;;6.46;63.27
39267;BME280;24967;51.154;13.812;2023-04-28T00:23:49;99779.38;;;6.43;63.17
39267;BME280;24967;51.154;13.812;2023-04-28T00:26:16;99770.38;;;6.46;63.37
39267;BME280;24967;51.154;13.812;2023-04-28T00:28:44;99772.91;;;6.47;63.70
39267;BME280;24967;51.154;13.812;2023-04-28T00:31:11;99762.56;;;6.44;63.31
39267;BME280;24967;51.154;13.812;2023-04-28T00:33:38;99770.50;;;6.44;63.60
39267;BME280;24967;51.154;13.812;2023-04-28T00:36:05;99769.06;;;6.40;63.43
39267;BME280;24967;51.154;13.812;2023-04-28T00:38:31;99762.69;;;6.42;63.64
39267;BME280;24967;51.154;13.812;2023-04-28T00:40:58;99752.25;;;6.41;63.15
39267;BME280;24967;51.154;13.812;2023-04-28T00:43:24;99752.00;;;6.44;63.54
39267;BME280;24967;51.154;13.812;2023-04-28T00:45:52;99747.66;;;6.32;64.32
39267;BME280;24967;51.154;13.812;2023-04-28T00:48:18;99745.41;;;6.27;63.96
39267;BME280;24967;51.154;13.812;2023-04-28T00:50:46;99733.88;;;6.28;64.21
39267;BME280;24967;51.154;13.812;2023-04-28T00:53:13;99732.19;;;6.27;64.27
39267;BME280;24967;51.154;13.812;2023-04-28T00:55:40;99729.81;;;6.24;64.21
39267;BME280;24967;51.154;13.812;2023-04-28T00:58:07;99723.91;;;6.21;64.22
39267;BME280;24967;51.154;13.812;2023-04-28T01:00:33;99720.78;;;6.15;64.25
39267;BME280;24967;51.154;13.812;2023-04-28T01:03:01;99721.72;;;6.03;64.75
39267;BME280;24967;51.154;13.812;2023-04-28T01:05:29;99721.47;;;5.95;64.93
39267;BME280;24967;51.154;13.812;2023-04-28T01:07:57;99710.38;;;5.90;65.45
39267;BME280;24967;51.154;13.812;2023-04-28T01:10:23;99716.09;;;5.96;65.07
39267;BME280;24967;51.154;13.812;2023-04-28T01:12:50;99712.38;;;5.99;65.50
39267;BME280;24967;51.154;13.812;2023-04-28T01:15:17;99709.59;;;6.01;65.20
39267;BME280;24967;51.154;13.812;2023-04-28T01:17:44;99712.00;;;6.04;65.06
39267;BME280;24967;51.154;13.812;2023-04-28T01:20:13;99710.81;;;6.08;65.08
39267;BME280;24967;51.154;13.812;2023-04-28T01:22:39;99714.06;;;6.11;65.10
39267;BME280;24967;51.154;13.812;2023-04-28T01:25:08;99711.31;;;6.13;64.89
39267;BME280;24967;51.154;13.812;2023-04-28T01:27:34;99702.41;;;6.14;64.96
39267;BME280;24967;51.154;13.812;2023-04-28T01:30:01;99700.75;;;6.13;64.69
39267;BME280;24967;51.154;13.812;2023-04-28T01:32:27;99701.94;;;6.20;64.71
39267;BME280;24967;51.154;13.812;2023-04-28T01:34:54;99696.16;;;6.04;65.14
39267;BME280;24967;51.154;13.812;2023-04-28T01:37:20;99695.88;;;5.84;65.98
39267;BME280;24967;51.154;13.812;2023-04-28T01:39:46;99687.94;;;5.73;66.52
39267;BME280;24967;51.154;13.812;2023-04-28T01:42:14;99693.47;;;5.81;66.40
39267;BME280;24967;51.154;13.812;2023-04-28T01:44:41;99685.00;;;5.65;67.16
39267;BME280;24967;51.154;13.812;2023-04-28T01:47:07;99688.03;;;5.71;67.19
39267;BME280;24967;51.154;13.812;2023-04-28T01:49:33;99688.00;;;5.60;67.29
39267;BME280;24967;51.154;13.812;2023-04-28T01:52:00;99682.53;;;5.39;68.54
39267;BME280;24967;51.154;13.812;2023-04-28T01:54:26;99674.28;;;5.44;68.34
39267;BME280;24967;51.154;13.812;2023-04-28T01:56:53;99674.28;;;5.44;68.67
39267;BME280;24967;51.154;13.812;2023-04-28T01:59:21;99663.28;;;5.50;68.80
39267;BME280;24967;51.154;13.812;2023-04-28T02:01:47;99668.31;;;5.53;68.55
39267;BME280;24967;51.154;13.812;2023-04-28T02:04:14;99669.19;;;5.65;68.20
39267;BME280;24967;51.154;13.812;2023-04-28T02:06:40;99661.31;;;5.76;67.70
39267;BME280;24967;51.154;13.812;2023-04-28T02:09:07;99665.28;;;5.82;67.55
39267;BME280;24967;51.154;13.812;2023-04-28T02:11:33;99673.44;;;5.90;67.50
39267;BME280;24967;51.154;13.812;2023-04-28T02:13:59;99657.59;;;5.90;66.79
39267;BME280;24967;51.154;13.812;2023-04-28T02:16:27;99652.78;;;5.84;66.90
39267;BME280;24967;51.154;13.812;2023-04-28T02:18:54;99656.63;;;5.80;66.20
39267;BME280;24967;51.154;13.812;2023-04-28T02:21:20;99649.78;;;5.66;67.03
39267;BME280;24967;51.154;13.812;2023-04-28T02:23:46;99656.97;;;5.64;67.39
39267;BME280;24967;51.154;13.812;2023-04-28T02:26:14;99656.97;;;5.64;67.19
39267;BME280;24967;51.154;13.812;2023-04-28T02:28:41;99649.09;;;5.75;67.23
39267;BME280;24967;51.154;13.812;2023-04-28T02:31:08;99651.84;;;5.85;66.73
39267;BME280;24967;51.154;13.812;2023-04-28T02:33:37;99648.75;;;5.91;66.84
39267;BME280;24967;51.154;13.812;2023-04-28T02:36:04;99643.88;;;5.97;66.74
39267;BME280;24967;51.154;13.812;2023-04-28T02:38:31;99640.97;;;6.01;66.44
39267;BME280;24967;51.154;13.812;2023-04-28T02:40:58;99647.72;;;5.93;66.23
39267;BME280;24967;51.154;13.812;2023-04-28T02:43:26;99640.09;;;5.89;66.87
39267;BME280;24967;51.154;13.812;2023-04-28T02:45:52;99638.94;;;5.93;66.88
39267;BME280;24967;51.154;13.812;2023-04-28T02:48:19;99633.66;;;5.93;66.93
39267;BME280;24967;51.154;13.812;2023-04-28T02:50:47;99635.94;;;5.97;66.64
39267;BME280;24967;51.154;13.812;2023-04-28T02:53:13;99622.66;;;5.99;66.38
39267;BME280;24967;51.154;13.812;2023-04-28T02:55:40;99623.47;;;6.00;66.64
39267;BME280;24967;51.154;13.812;2023-04-28T02:58:06;99621.19;;;5.95;66.69
39267;BME280;24967;51.154;13.812;2023-04-28T03:00:33;99618.44;;;5.96;66.69
39267;BME280;24967;51.154;13.812;2023-04-28T03:02:59;99625.25;;;5.88;66.55
39267;BME280;24967;51.154;13.812;2023-04-28T03:05:26;99624.88;;;5.81;66.50
39267;BME280;24967;51.154;13.812;2023-04-28T03:07:54;99621.75;;;5.87;66.77
39267;BME280;24967;51.154;13.812;2023-04-28T03:10:21;99618.31;;;5.98;66.38
39267;BME280;24967;51.154;13.812;2023-04-28T03:12:47;99614.72;;;5.99;65.87
39267;BME280;24967;51.154;13.812;2023-04-28T03:15:14;99616.41;;;6.11;65.32
39267;BME280;24967;51.154;13.812;2023-04-28T03:17:40;99609.56;;;5.97;65.43
39267;BME280;24967;51.154;13.812;2023-04-28T03:20:08;99603.44;;;5.97;65.94
39267;BME280;24967;51.154;13.812;2023-04-28T03:22:35;99598.91;;;5.99;66.12
39267;BME280;24967;51.154;13.812;2023-04-28T03:25:04;99599.94;;;6.08;65.77
39267;BME280;24967;51.154;13.812;2023-04-28T03:27:30;99594.09;;;6.15;65.48
39267;BME280;24967;51.154;13.812;2023-04-28T03:29:57;99584.75;;;6.11;65.63
39267;BME280;24967;51.154;13.812;2023-04-28T03:32:23;99591.94;;;6.21;65.11
39267;BME280;24967;51.154;13.812;2023-04-28T03:34:49;99586.50;;;6.11;65.71
39267;BME280;24967;51.154;13.812;2023-04-28T03:37:16;99577.41;;;6.15;65.88
39267;BME280;24967;51.154;13.812;2023-04-28T03:39:42;99581.13;;;6.12;65.31
39267;BME280;24967;51.154;13.812;2023-04-28T03:42:10;99584.25;;;6.17;65.34
39267;BME280;24967;51.154;13.812;2023-04-28T03:44:36;99578.25;;;6.27;65.38
39267;BME280;24967;51.154;13.812;2023-04-28T03:47:03;99573.31;;;6.33;64.88
39267;BME280;24967;51.154;13.812;2023-04-28T03:49:29;99573.06;;;6.25;64.90
39267;BME280;24967;51.154;13.812;2023-04-28T03:51:56;99570.91;;;6.19;65.35
39267;BME280;24967;51.154;13.812;2023-04-28T03:54:22;99572.47;;;6.22;65.25
39267;BME280;24967;51.154;13.812;2023-04-28T03:56:49;99565.63;;;6.30;65.31
39267;BME280;24967;51.154;13.812;2023-04-28T03:59:17;99580.38;;;6.33;65.17
39267;BME280;24967;51.154;13.812;2023-04-28T04:01:43;99571.25;;;6.37;65.15
39267;BME280;24967;51.154;13.812;2023-04-28T04:04:09;99583.00;;;6.44;65.32
39267;BME280;24967;51.154;13.812;2023-04-28T04:06:36;99580.72;;;6.39;65.01
39267;BME280;24967;51.154;13.812;2023-04-28T04:09:02;99578.19;;;6.38;65.17
39267;BME280;24967;51.154;13.812;2023-04-28T04:11:29;99575.56;;;6.38;65.50
39267;BME280;24967;51.154;13.812;2023-04-28T04:13:55;99570.66;;;6.33;65.53
39267;BME280;24967;51.154;13.812;2023-04-28T04:16:23;99562.84;;;6.32;65.37
39267;BME280;24967;51.154;13.812;2023-04-28T04:18:49;99561.28;;;6.29;66.09
39267;BME280;24967;51.154;13.812;2023-04-28T04:21:16;99554.00;;;6.22;66.06
39267;BME280;24967;51.154;13.812;2023-04-28T04:23:42;99552.78;;;6.26;66.17
39267;BME280;24967;51.154;13.812;2023-04-28T04:26:08;99550.97;;;6.37;66.02
39267;BME280;24967;51.154;13.812;2023-04-28T04:28:35;99546.50;;;6.38;66.26
39267;BME280;24967;51.154;13.812;2023-04-28T04:31:01;99544.59;;;6.40;66.60
39267;BME280;24967;51.154;13.812;2023-04-28T04:33:29;99547.22;;;6.51;66.80
39267;BME280;24967;51.154;13.812;2023-04-28T04:35:56;99536.84;;;6.59;66.70
39267;BME280;24967;51.154;13.812;2023-04-28T04:38:22;99535.72;;;6.73;65.96
39267;BME280;24967;51.154;13.812;2023-04-28T04:40:48;99531.25;;;6.85;65.69
39267;BME280;24967;51.154;13.812;2023-04-28T04:43:15;99529.19;;;6.88;65.37
39267;BME280;24967;51.154;13.812;2023-04-28T04:45:41;99529.31;;;6.87;66.42
39267;BME280;24967;51.154;13.812;2023-04-28T04:48:08;99529.31;;;6.87;66.11
39267;BME280;24967;51.154;13.812;2023-04-28T04:50:36;99528.31;;;6.99;66.07
39267;BME280;24967;51.154;13.812;2023-04-28T04:53:02;99517.13;;;7.17;65.13
39267;BME280;24967;51.154;13.812;2023-04-28T04:55:29;99517.47;;;7.23;64.53
39267;BME280;24967;51.154;13.812;2023-04-28T04:57:55;99520.16;;;7.33;64.63
39267;BME280;24967;51.154;13.812;2023-04-28T05:00:21;99512.41;;;7.41;64.33
39267;BME280;24967;51.154;13.812;2023-04-28T05:02:48;99511.72;;;7.39;64.62
39267;BME280;24967;51.154;13.812;2023-04-28T05:05:14;99512.06;;;7.55;65.48
39267;BME280;24967;51.154;13.812;2023-04-28T05:07:42;99505.84;;;7.66;64.80
39267;BME280;24967;51.154;13.812;2023-04-28T05:10:09;99503.47;;;7.63;64.14
39267;BME280;24967;51.154;13.812;2023-04-28T05:12:36;99511.28;;;7.65;64.09
39267;BME280;24967;51.154;13.812;2023-04-28T05:15:03;99505.44;;;7.71;63.53
39267;BME280;24967;51.154;13.812;2023-04-28T05:17:30;99506.47;;;7.79;63.76
39267;BME280;24967;51.154;13.812;2023-04-28T05:19:57;99504.81;;;7.88;62.61
39267;BME280;24967;51.154;13.812;2023-04-28T05:22:23;99491.63;;;7.98;63.42
39267;BME280;24967;51.154;13.812;2023-04-28T05:24:52;99486.88;;;8.01;61.95
39267;BME280;24967;51.154;13.812;2023-04-28T05:27:18;99491.91;;;8.04;62.67
39267;BME280;24967;51.154;13.812;2023-04-28T05:29:44;99491.53;;;8.29;63.35
39267;BME280;24967;51.154;13.812;2023-04-28T05:32:12;99489.03;;;8.37;62.31
39267;BME280;24967;51.154;13.812;2023-04-28T05:34:38;99481.72;;;8.60;61.61
39267;BME280;24967;51.154;13.812;2023-04-28T05:37:05;99478.63;;;8.74;61.61
39267;BME280;24967;51.154;13.812;2023-04-28T05:39:31;99470.81;;;8.82;61.72
39267;BME280;24967;51.154;13.812;2023-04-28T05:41:59;99466.47;;;8.91;60.91
39267;BME280;24967;51.154;13.812;2023-04-28T05:44:25;99467.13;;;9.12;61.65
39267;BME280;24967;51.154;13.812;2023-04-28T05:46:52;99468.66;;;9.25;59.95
39267;BME280;24967;51.154;13.812;2023-04-28T05:49:18;99469.31;;;9.36;60.57
39267;BME280;24967;51.154;13.812;2023-04-28T05:51:44;99466.50;;;9.48;59.72
39267;BME280;24967;51.154;13.812;2023-04-28T05:54:11;99462.13;;;9.56;59.02
39267;BME280;24967;51.154;13.812;2023-04-28T05:56:37;99466.84;;;9.62;59.27
39267;BME280;24967;51.154;13.812;2023-04-28T05:59:05;99465.28;;;9.70;58.86
39267;BME280;24967;51.154;13.812;2023-04-28T06:01:32;99468.22;;;9.67;58.38
39267;BME280;24967;51.154;13.812;2023-04-28T06:03:58;99471.41;;;9.70;57.50
39267;BME280;24967;51.154;13.812;2023-04-28T06:06:25;99466.94;;;9.71;58.27
39267;BME280;24967;51.154;13.812;2023-04-28T06:08:52;99462.03;;;9.76;58.12
39267;BME280;24967;51.154;13.812;2023-04-28T06:11:18;99466.50;;;9.75;57.72
39267;BME280;24967;51.154;13.812;2023-04-28T06:13:46;99465.53;;;9.76;57.95
39267;BME280;24967;51.154;13.812;2023-04-28T06:16:14;99460.44;;;9.83;57.86
39267;BME280;24967;51.154;13.812;2023-04-28T06:18:41;99472.66;;;10.03;58.31
39267;BME280;24967;51.154;13.812;2023-04-28T06:21:07;99466.66;;;10.19;56.73
39267;BME280;24967;51.154;13.812;2023-04-28T06:23:34;99466.59;;;10.57;57.47
39267;BME280;24967;51.154;13.812;2023-04-28T06:26:01;99470.78;;;11.03;57.07
39267;BME280;24967;51.154;13.812;2023-04-28T06:28:28;99466.06;;;11.41;55.86
39267;BME280;24967;51.154;13.812;2023-04-28T06:30:54;99459.69;;;12.02;53.63
39267;BME280;24967;51.154;13.812;2023-04-28T06:33:22;99458.31;;;12.73;53.76
39267;BME280;24967;51.154;13.812;2023-04-28T06:35:48;99453.78;;;13.31;51.97
39267;BME280;24967;51.154;13.812;2023-04-28T06:38:15;99452.75;;;13.96;51.57
39267;BME280;24967;51.154;13.812;2023-04-28T06:40:41;99447.66;;;13.70;47.29
39267;BME280;24967;51.154;13.812;2023-04-28T06:43:09;99446.31;;;13.74;48.39
39267;BME280;24967;51.154;13.812;2023-04-28T06:45:36;99451.94;;;13.40;48.87
39267;BME280;24967;51.154;13.812;2023-04-28T06:48:03;99455.81;;;13.29;49.05
39267;BME280;24967;51.154;13.812;2023-04-28T06:50:31;99451.63;;;13.26;49.74
39267;BME280;24967;51.154;13.812;2023-04-28T06:52:58;99440.13;;;13.26;48.94
39267;BME280;24967;51.154;13.812;2023-04-28T06:55:25;99440.63;;;13.05;49.28
39267;BME280;24967;51.154;13.812;2023-04-28T06:57:52;99442.81;;;13.01;49.86
39267;BME280;24967;51.154;13.812;2023-04-28T07:00:19;99442.97;;;13.00;50.06
39267;BME280;24967;51.154;13.812;2023-04-28T07:02:45;99439.78;;;13.13;49.68
39267;BME280;24967;51.154;13.812;2023-04-28T07:05:12;99441.09;;;13.41;48.90
39267;BME280;24967;51.154;13.812;2023-04-28T07:07:40;99433.25;;;13.79;48.57
39267;BME280;24967;51.154;13.812;2023-04-28T07:10:07;99428.47;;;14.06;47.81
39267;BME280;24967;51.154;13.812;2023-04-28T07:12:34;99423.31;;;14.27;47.78
39267;BME280;24967;51.154;13.812;2023-04-28T07:15:01;99426.41;;;14.39;47.99
39267;BME280;24967;51.154;13.812;2023-04-28T07:17:27;99429.88;;;14.48;47.23
39267;BME280;24967;51.154;13.812;2023-04-28T07:19:54;99422.97;;;14.76;47.07
39267;BME280;24967;51.154;13.812;2023-04-28T07:22:20;99428.69;;;14.50;46.14
39267;BME280;24967;51.154;13.812;2023-04-28T07:24:48;99419.84;;;14.18;46.84
39267;BME280;24967;51.154;13.812;2023-04-28T07:27:14;99410.63;;;14.29;47.44
39267;BME280;24967;51.154;13.812;2023-04-28T07:29:41;99423.22;;;14.43;46.75
39267;BME280;24967;51.154;13.812;2023-04-28T07:32:08;99420.25;;;14.38;47.17
39267;BME280;24967;51.154;13.812;2023-04-28T07:34:34;99418.59;;;14.37;46.26
39267;BME280;24967;51.154;13.812;2023-04-28T07:37:01;99418.44;;;14.08;46.90
39267;BME280;24967;51.154;13.812;2023-04-28T07:39:29;99413.22;;;13.83;47.23
39267;BME280;24967;51.154;13.812;2023-04-28T07:41:57;99411.38;;;13.84;48.20
39267;BME280;24967;51.154;13.812;2023-04-28T07:44:24;99411.97;;;13.94;48.45
39267;BME280;24967;51.154;13.812;2023-04-28T07:46:50;99411.34;;;13.92;47.64
39267;BME280;24967;51.154;13.812;2023-04-28T07:49:18;99397.56;;;14.03;48.27
39267;BME280;24967;51.154;13.812;2023-04-28T07:51:44;99397.56;;;14.03;47.84
39267;BME280;24967;51.154;13.812;2023-04-28T07:54:11;99394.91;;;14.03;49.18
39267;BME280;24967;51.154;13.812;2023-04-28T07:56:37;99390.44;;;14.18;47.98
39267;BME280;24967;51.154;13.812;2023-04-28T07:59:05;99396.94;;;14.24;47.52
39267;BME280;24967;51.154;13.812;2023-04-28T08:01:32;99393.50;;;14.38;47.92
39267;BME280;24967;51.154;13.812;2023-04-28T08:03:58;99388.25;;;14.53;48.27
39267;BME280;24967;51.154;13.812;2023-04-28T08:06:25;99394.56;;;14.52;46.87
39267;BME280;24967;51.154;13.812;2023-04-28T08:08:51;99388.38;;;14.75;47.91
39267;BME280;24967;51.154;13.812;2023-04-28T08:11:18;99384.56;;;14.92;47.45
39267;BME280;24967;51.154;13.812;2023-04-28T08:13:45;99380.31;;;15.27;48.14
39267;BME280;24967;51.154;13.812;2023-04-28T08:16:13;99380.06;;;15.22;46.19
39267;BME280;24967;51.154;13.812;2023-04-28T08:18:40;99377.75;;;15.34;47.07
39267;BME280;24967;51.154;13.812;2023-04-28T08:21:06;99380.75;;;15.46;45.89
39267;BME280;24967;51.154;13.812;2023-04-28T08:23:33;99375.34;;;15.69;46.83
39267;BME280;24967;51.154;13.812;2023-04-28T08:25:59;99375.84;;;15.79;46.13
39267;BME280;24967;51.154;13.812;2023-04-28T08:28:26;99377.13;;;15.98;45.83
39267;BME280;24967;51.154;13.812;2023-04-28T08:30:52;99373.28;;;15.86;45.39
39267;BME280;24967;51.154;13.812;2023-04-28T08:33:21;99376.84;;;15.93;45.76
39267;BME280;24967;51.154;13.812;2023-04-28T08:35:48;99373.75;;;16.32;47.13
39267;BME280;24967;51.154;13.812;2023-04-28T08:38:14;99370.19;;;16.25;44.21
39267;BME280;24967;51.154;13.812;2023-04-28T08:40:42;99372.31;;;16.58;44.55
39267;BME280;24967;51.154;13.812;2023-04-28T08:43:09;99372.16;;;16.38;44.66
39267;BME280;24967;51.154;13.812;2023-04-28T08:45:40;99370.03;;;16.33;44.75
39267;BME280;24967;51.154;13.812;2023-04-28T08:48:13;99361.59;;;16.36;44.02
39267;BME280;24967;51.154;13.812;2023-04-28T08:50:48;99360.53;;;16.31;44.68
39267;BME280;24967;51.154;13.812;2023-04-28T08:53:20;99359.91;;;16.07;44.83
39267;BME280;24967;51.154;13.812;2023-04-28T08:55:48;99360.84;;;16.21;44.91
39267;BME280;24967;51.154;13.812;2023-04-28T08:58:16;99351.03;;;16.28;44.39
39267;BME280;24967;51.154;13.812;2023-04-28T09:00:43;99348.97;;;16.09;43.68
39267;BME280;24967;51.154;13.812;2023-04-28T09:03:09;99350.19;;;16.27;45.07
39267;BME280;24967;51.154;13.812;2023-04-28T09:05:36;99347.50;;;16.49;45.99
39267;BME280;24967;51.154;13.812;2023-04-28T09:08:04;99340.84;;;16.73;46.58
39267;BME280;24967;51.154;13.812;2023-04-28T09:10:30;99343.94;;;16.70;43.35
39267;BME280;24967;51.154;13.812;2023-04-28T09:12:57;99345.69;;;16.78;44.23
39267;BME280;24967;51.154;13.812;2023-04-28T09:15:27;99351.59;;;16.94;43.83
39267;BME280;24967;51.154;13.812;2023-04-28T09:17:54;99351.53;;;17.16;43.69
39267;BME280;24967;51.154;13.812;2023-04-28T09:20:22;99341.56;;;16.82;43.11
39267;BME280;24967;51.154;13.812;2023-04-28T09:22:49;99346.13;;;16.81;43.97
39267;BME280;24967;51.154;13.812;2023-04-28T09:25:18;99348.28;;;16.92;44.70
39267;BME280;24967;51.154;13.812;2023-04-28T09:27:46;99347.19;;;16.87;44.22
39267;BME280;24967;51.154;13.812;2023-04-28T09:30:12;99344.41;;;17.02;44.22
39267;BME280;24967;51.154;13.812;2023-04-28T09:32:39;99349.69;;;17.23;44.79
39267;BME280;24967;51.154;13.812;2023-04-28T09:35:06;99336.91;;;17.25;44.35
39267;BME280;24967;51.154;13.812;2023-04-28T09:37:33;99334.25;;;17.32;44.12
39267;BME280;24967;51.154;13.812;2023-04-28T09:40:06;99327.00;;;17.26;43.57
39267;BME280;24967;51.154;13.812;2023-04-28T09:42:36;99331.44;;;17.47;43.78
39267;BME280;24967;51.154;13.812;2023-04-28T09:45:04;99331.97;;;17.29;43.52
39267;BME280;24967;51.154;13.812;2023-04-28T09:47:32;99335.97;;;17.46;44.41
39267;BME280;24967;51.154;13.812;2023-04-28T09:50:01;99335.84;;;17.20;43.95
39267;BME280;24967;51.154;13.812;2023-04-28T09:52:27;99333.41;;;16.97;44.21
39267;BME280;24967;51.154;13.812;2023-04-28T09:54:55;99329.38;;;17.07;44.82
39267;BME280;24967;51.154;13.812;2023-04-28T09:57:22;99329.81;;;17.17;44.68
39267;BME280;24967;51.154;13.812;2023-04-28T09:59:51;99327.69;;;17.48;44.82
39267;BME280;24967;51.154;13.812;2023-04-28T10:02:19;99323.56;;;17.45;44.01
39267;BME280;24967;51.154;13.812;2023-04-28T10:04:48;99317.38;;;17.51;43.35
39267;BME280;24967;51.154;13.812;2023-04-28T10:07:15;99326.25;;;17.52;43.18
39267;BME280;24967;51.154;13.812;2023-04-28T10:09:43;99326.91;;;17.54;43.08
39267;BME280;24967;51.154;13.812;2023-04-28T10:12:12;99321.47;;;17.34;42.47
39267;BME280;24967;51.154;13.812;2023-04-28T10:14:39;99314.59;;;17.25;43.17
39267;BME280;24967;51.154;13.812;2023-04-28T10:17:07;99323.25;;;17.27;43.35
39267;BME280;24967;51.154;13.812;2023-04-28T10:19:34;99323.00;;;17.15;43.62
39267;BME280;24967;51.154;13.812;2023-04-28T10:22:10;99320.91;;;17.10;43.86
39267;BME280;24967;51.154;13.812;2023-04-28T10:24:52;99328.72;;;17.05;44.48
39267;BME280;24967;51.154;13.812;2023-04-28T10:27:28;99318.34;;;16.96;44.09
39267;BME280;24967;51.154;13.812;2023-04-28T10:30:08;99323.09;;;16.72;43.98
39267;BME280;24967;51.154;13.812;2023-04-28T10:32:36;99320.81;;;16.69;44.98
39267;BME280;24967;51.154;13.812;2023-04-28T10:35:40;99323.28;;;16.92;45.43
39267;BME280;24967;51.154;13.812;2023-04-28T10:38:09;99324.66;;;16.81;45.84
39267;BME280;24967;51.154;13.812;2023-04-28T10:40:37;99321.38;;;16.86;45.99
39267;BME280;24967;51.154;13.812;2023-04-28T10:43:04;99321.00;;;16.89;45.04
39267;BME280;24967;51.154;13.812;2023-04-28T10:45:59;99321.06;;;17.02;45.58
39267;BME280;24967;51.154;13.812;2023-04-28T10:48:59;99318.69;;;17.21;45.71
39267;BME280;24967;51.154;13.812;2023-04-28T10:51:29;99326.75;;;17.21;45.54
39267;BME280;24967;51.154;13.812;2023-04-28T10:54:15;99336.69;;;17.27;46.44
39267;BME280;24967;51.154;13.812;2023-04-28T10:57:13;99342.22;;;17.18;48.52
39267;BME280;24967;51.154;13.812;2023-04-28T10:59:49;99346.84;;;16.97;47.64
39267;BME280;24967;51.154;13.812;2023-04-28T11:02:40;99347.59;;;17.18;48.24
39267;BME280;24967;51.154;13.812;2023-04-28T11:05:12;99347.78;;;17.10;52.12
39267;BME280;24967;51.154;13.812;2023-04-28T11:07:39;99347.31;;;16.29;53.34
39267;BME280;24967;51.154;13.812;2023-04-28T11:10:15;99349.16;;;16.07;56.06
39267;BME280;24967;51.154;13.812;2023-04-28T11:13:25;99357.22;;;15.71;58.52
39267;BME280;24967;51.154;13.812;2023-04-28T11:16:02;99357.41;;;15.40;61.59
39267;BME280;24967;51.154;13.812;2023-04-28T11:18:28;99355.44;;;14.74;63.34
39267;BME280;24967;51.154;13.812;2023-04-28T11:20:56;99360.47;;;14.54;64.56
39267;BME280;24967;51.154;13.812;2023-04-28T11:23:27;99358.16;;;14.51;65.65
39267;BME280;24967;51.154;13.812;2023-04-28T11:25:53;99354.28;;;14.54;65.84
39267;BME280;24967;51.154;13.812;2023-04-28T11:28:20;99363.66;;;14.73;67.68
39267;BME280;24967;51.154;13.812;2023-04-28T11:30:46;99364.00;;;14.70;67.02
39267;BME280;24967;51.154;13.812;2023-04-28T11:33:13;99373.25;;;14.82;68.42
39267;BME280;24967;51.154;13.812;2023-04-28T11:35:40;99361.59;;;14.98;66.95
39267;BME280;24967;51.154;13.812;2023-04-28T11:38:08;99360.34;;;14.85;68.96
39267;BME280;24967;51.154;13.812;2023-04-28T11:40:34;99355.19;;;14.84;68.14
39267;BME280;24967;51.154;13.812;2023-04-28T11:43:01;99355.28;;;14.91;67.28
39267;BME280;24967;51.154;13.812;2023-04-28T11:45:28;99358.88;;;14.83;68.49
39267;BME280;24967;51.154;13.812;2023-04-28T11:47:54;99359.72;;;15.28;67.35
39267;BME280;24967;51.154;13.812;2023-04-28T11:50:34;99355.94;;;15.37;67.03
39267;BME280;24967;51.154;13.812;2023-04-28T11:53:01;99361.59;;;14.98;68.67
39267;BME280;24967;51.154;13.812;2023-04-28T11:55:29;99357.16;;;15.34;66.55
39267;BME280;24967;51.154;13.812;2023-04-28T11:58:16;99356.94;;;15.21;64.94
39267;BME280;24967;51.154;13.812;2023-04-28T12:00:42;99351.69;;;15.28;67.06
39267;BME280;24967;51.154;13.812;2023-04-28T12:03:09;99352.91;;;15.40;65.65
39267;BME280;24967;51.154;13.812;2023-04-28T12:05:43;99351.19;;;15.54;66.06
39267;BME280;24967;51.154;13.812;2023-04-28T12:08:09;99341.59;;;15.74;66.18
39267;BME280;24967;51.154;13.812;2023-04-28T12:10:37;99342.69;;;15.80;65.75
39267;BME280;24967;51.154;13.812;2023-04-28T12:13:14;99341.59;;;15.74;65.47
39267;BME280;24967;51.154;13.812;2023-04-28T12:15:40;99341.31;;;15.69;64.80
39267;BME280;24967;51.154;13.812;2023-04-28T12:18:08;99337.56;;;15.85;65.24
39267;BME280;24967;51.154;13.812;2023-04-28T12:20:36;99340.59;;;15.97;64.95
39267;BME280;24967;51.154;13.812;2023-04-28T12:23:03;99334.84;;;16.21;64.20
39267;BME280;24967;51.154;13.812;2023-04-28T12:25:30;99332.31;;;16.35;63.65
39267;BME280;24967;51.154;13.812;2023-04-28T12:28:00;99327.19;;;16.40;62.51
39267;BME280;24967;51.154;13.812;2023-04-28T12:30:28;99337.78;;;16.48;59.42
39267;BME280;24967;51.154;13.812;2023-04-28T12:32:55;99336.47;;;16.37;62.34
39267;BME280;24967;51.154;13.812;2023-04-28T12:35:23;99325.56;;;16.45;59.88
39267;BME280;24967;51.154;13.812;2023-04-28T12:37:50;99328.34;;;16.31;60.94
39267;BME280;24967;51.154;13.812;2023-04-28T12:40:17;99326.56;;;16.38;59.50
39267;BME280;24967;51.154;13.812;2023-04-28T12:42:44;99313.09;;;16.59;59.81
39267;BME280;24967;51.154;13.812;2023-04-28T12:45:12;99318.03;;;16.77;58.07
39267;BME280;24967;51.154;13.812;2023-04-28T12:47:39;99318.53;;;16.66;59.38
39267;BME280;24967;51.154;13.812;2023-04-28T12:50:06;99321.53;;;16.56;60.40
39267;BME280;24967;51.154;13.812;2023-04-28T12:52:33;99314.19;;;16.65;59.06
39267;BME280;24967;51.154;13.812;2023-04-28T12:55:01;99303.78;;;16.77;56.98
39267;BME280;24967;51.154;13.812;2023-04-28T12:57:28;99313.44;;;16.49;56.95
39267;BME280;24967;51.154;13.812;2023-04-28T12:59:54;99304.31;;;16.44;56.19